createdAt,value
2022-10-07T00:01:10.047Z,81.24
2022-10-07T00:03:38.033Z,80.52
2022-10-07T00:06:07.924Z,80.60
2022-10-07T00:08:37.904Z,80.47
2022-10-07T00:11:10.386Z,79.67
2022-10-07T00:13:40.556Z,80.62
2022-10-07T00:16:10.425Z,80.46
2022-10-07T00:18:39.012Z,80.42
2022-10-07T00:21:08.589Z,80.20
2022-10-07T00:23:36.829Z,80.17
2022-10-07T00:26:08.744Z,80.61
2022-10-07T00:28:37.521Z,80.61
2022-10-07T00:31:11.215Z,80.28
2022-10-07T00:33:41.269Z,80.21
2022-10-07T00:36:14.796Z,80.09
2022-10-07T00:38:42.699Z,82.55
2022-10-07T00:41:19.675Z,82.13
2022-10-07T00:43:48.538Z,80.94
2022-10-07T00:46:26.720Z,80.89
2022-10-07T00:48:55.332Z,81.85
2022-10-07T00:51:23.526Z,81.65
2022-10-07T00:53:53.551Z,81.02
2022-10-07T00:56:24.583Z,80.45
2022-10-07T00:58:52.755Z,79.91
2022-10-07T01:01:22.003Z,82.46
2022-10-07T01:03:50.499Z,82.98
2022-10-07T01:06:18.781Z,82.07
2022-10-07T01:08:48.543Z,84.14
2022-10-07T01:11:33.250Z,81.91
2022-10-07T01:14:08.260Z,80.60
2022-10-07T01:16:44.974Z,80.10
2022-10-07T01:19:37.776Z,82.38
2022-10-07T01:22:22.960Z,81.11
2022-10-07T01:24:59.598Z,79.80
2022-10-07T01:27:30.177Z,80.19
2022-10-07T01:30:03.438Z,79.73
2022-10-07T01:32:36.908Z,79.69
2022-10-07T01:35:11.318Z,79.63
2022-10-07T01:37:45.495Z,79.49
2022-10-07T01:40:16.927Z,79.72
2022-10-07T01:42:47.461Z,79.88
2022-10-07T01:45:21.338Z,79.59
2022-10-07T01:47:49.300Z,79.35
2022-10-07T01:50:21.616Z,79.15
2022-10-07T01:53:03.602Z,79.19
2022-10-07T01:55:51.358Z,78.77
2022-10-07T01:58:33.226Z,79.67
2022-10-07T02:01:15.613Z,79.94
2022-10-07T02:04:01.894Z,79.35
2022-10-07T02:06:40.090Z,78.85
2022-10-07T02:09:20.008Z,79.94
2022-10-07T02:11:56.395Z,78.86
2022-10-07T02:14:39.437Z,79.13
2022-10-07T02:17:14.129Z,78.95
2022-10-07T02:19:48.382Z,78.28
2022-10-07T02:22:19.045Z,81.41
2022-10-07T02:24:49.263Z,80.95
2022-10-07T02:27:21.834Z,81.13
2022-10-07T02:29:58.061Z,80.53
2022-10-07T02:32:28.606Z,80.28
2022-10-07T02:35:03.093Z,82.48
2022-10-07T02:37:36.230Z,80.94
2022-10-07T02:40:12.283Z,79.53
2022-10-07T02:42:52.377Z,81.51
2022-10-07T02:45:27.125Z,82.23
2022-10-07T02:48:01.789Z,81.34
2022-10-07T02:50:38.282Z,83.38
2022-10-07T02:53:07.121Z,83.28
2022-10-07T02:55:36.014Z,81.95
2022-10-07T02:58:08.228Z,80.95
2022-10-07T03:00:43.714Z,81.73
2022-10-07T03:03:11.583Z,81.82
2022-10-07T03:05:55.951Z,80.39
2022-10-07T03:08:25.155Z,80.30
2022-10-07T03:10:53.649Z,80.90
2022-10-07T03:13:21.681Z,80.31
2022-10-07T03:15:55.991Z,79.84
2022-10-07T03:18:28.598Z,80.81
2022-10-07T03:21:22.825Z,79.65
2022-10-07T03:23:54.569Z,80.49
2022-10-07T03:26:26.141Z,79.48
2022-10-07T03:28:55.266Z,79.67
2022-10-07T03:31:26.203Z,80.90
2022-10-07T03:33:58.043Z,84.50
2022-10-07T03:36:26.360Z,82.61
2022-10-07T03:39:05.114Z,82.47
2022-10-07T03:41:34.040Z,83.79
2022-10-07T03:44:03.980Z,83.96
2022-10-07T03:46:33.394Z,84.01
2022-10-07T03:49:02.202Z,82.33
2022-10-07T03:51:30.736Z,82.08
2022-10-07T03:53:58.924Z,83.14
2022-10-07T03:56:30.953Z,82.29
2022-10-07T03:58:59.723Z,81.99
2022-10-07T04:01:31.443Z,80.77
2022-10-07T04:04:01.939Z,81.52
2022-10-07T04:06:34.307Z,81.58
2022-10-07T04:09:06.322Z,81.23
2022-10-07T04:11:35.260Z,81.44
2022-10-07T04:14:03.126Z,83.33
2022-10-07T04:16:37.805Z,84.87
2022-10-07T04:19:09.435Z,84.48
2022-10-07T04:21:37.285Z,83.93
2022-10-07T04:24:05.764Z,85.36
2022-10-07T04:26:33.849Z,83.69
2022-10-07T04:29:01.665Z,85.20
2022-10-07T04:31:30.025Z,86.53
2022-10-07T04:34:02.943Z,86.62
2022-10-07T04:36:36.752Z,85.46
2022-10-07T04:39:08.323Z,86.14
2022-10-07T04:41:44.023Z,87.64
2022-10-07T04:44:17.462Z,87.79
2022-10-07T04:46:54.125Z,87.18
2022-10-07T04:49:22.231Z,87.43
2022-10-07T04:51:51.652Z,87.28
2022-10-07T04:54:19.862Z,88.74
2022-10-07T04:56:53.009Z,86.91
2022-10-07T04:59:26.190Z,86.32
2022-10-07T05:01:57.168Z,87.65
2022-10-07T05:04:25.903Z,86.06
2022-10-07T05:06:59.424Z,84.39
2022-10-07T05:09:27.532Z,83.04
2022-10-07T05:11:57.881Z,83.22
2022-10-07T05:14:25.739Z,82.64
2022-10-07T05:16:54.104Z,82.96
2022-10-07T05:19:25.861Z,83.89
2022-10-07T05:21:54.726Z,83.52
2022-10-07T05:24:24.146Z,83.75
2022-10-07T05:26:52.405Z,82.45
2022-10-07T05:29:20.567Z,81.95
2022-10-07T05:31:51.992Z,82.85
2022-10-07T05:34:23.793Z,82.39
2022-10-07T05:36:53.312Z,82.19
2022-10-07T05:39:21.269Z,81.72
2022-10-07T05:41:57.650Z,84.11
2022-10-07T05:44:32.090Z,87.28
2022-10-07T05:47:02.371Z,88.40
2022-10-07T05:49:33.179Z,86.81
2022-10-07T05:52:01.196Z,84.96
2022-10-07T05:54:33.188Z,86.02
2022-10-07T05:57:02.972Z,84.52
2022-10-07T05:59:31.342Z,83.59
2022-10-07T06:02:00.593Z,83.18
2022-10-07T06:04:29.432Z,82.40
2022-10-07T06:06:57.517Z,81.03
2022-10-07T06:09:42.974Z,81.83
2022-10-07T06:12:34.339Z,80.87
2022-10-07T06:15:07.077Z,80.84
2022-10-07T06:17:35.134Z,80.54
2022-10-07T06:20:07.031Z,80.13
2022-10-07T06:22:35.783Z,80.24
2022-10-07T06:25:03.921Z,80.11
2022-10-07T06:27:36.063Z,81.94
2022-10-07T06:30:05.716Z,83.30
2022-10-07T06:32:33.721Z,85.38
2022-10-07T06:35:01.903Z,86.40
2022-10-07T06:37:32.552Z,86.49
2022-10-07T06:40:01.088Z,84.77
2022-10-07T06:42:32.639Z,84.04
2022-10-07T06:45:20.248Z,84.83
2022-10-07T06:47:50.855Z,85.00
2022-10-07T06:50:18.731Z,83.31
2022-10-07T06:52:46.465Z,84.58
2022-10-07T06:55:14.806Z,83.36
2022-10-07T06:57:46.243Z,84.02
2022-10-07T07:00:17.487Z,84.21
2022-10-07T07:02:49.063Z,81.57
2022-10-07T07:05:17.796Z,80.54
2022-10-07T07:07:47.802Z,78.95
2022-10-07T07:10:15.985Z,78.75
2022-10-07T07:12:48.115Z,77.58
2022-10-07T07:15:18.474Z,76.47
2022-10-07T07:17:48.497Z,76.45
2022-10-07T07:20:17.052Z,75.54
2022-10-07T07:22:44.935Z,75.20
2022-10-07T07:25:13.288Z,74.00
2022-10-07T07:27:41.645Z,73.39
2022-10-07T07:30:13.294Z,71.36
2022-10-07T07:32:42.122Z,70.66
2022-10-07T07:35:14.065Z,70.65
2022-10-07T07:37:42.774Z,71.48
2022-10-07T07:40:11.394Z,69.94
2022-10-07T07:42:39.464Z,69.17
2022-10-07T07:45:08.816Z,68.80
2022-10-07T07:47:37.094Z,71.41
2022-10-07T07:50:06.616Z,68.69
2022-10-07T07:52:37.895Z,67.85
2022-10-07T07:55:08.324Z,67.89
2022-10-07T07:57:37.713Z,67.47
2022-10-07T08:00:11.257Z,66.60
2022-10-07T08:02:54.696Z,64.74
2022-10-07T08:05:24.079Z,64.56
2022-10-07T08:07:55.812Z,63.82
2022-10-07T08:10:26.493Z,63.61
2022-10-07T08:12:55.880Z,63.12
2022-10-07T08:15:24.949Z,64.10
2022-10-07T08:17:53.687Z,61.54
2022-10-07T08:20:21.574Z,61.45
2022-10-07T08:22:49.842Z,60.42
2022-10-07T08:25:19.426Z,61.66
2022-10-07T08:27:47.888Z,61.18
2022-10-07T08:30:16.275Z,62.70
2022-10-07T08:32:44.123Z,61.20
2022-10-07T08:35:11.884Z,60.41
2022-10-07T08:37:39.736Z,60.26
2022-10-07T08:40:08.624Z,58.49
2022-10-07T08:42:40.726Z,60.42
2022-10-07T08:45:16.340Z,59.43
2022-10-07T08:47:47.266Z,58.42
2022-10-07T08:50:19.742Z,57.68
2022-10-07T08:52:53.060Z,59.67
2022-10-07T08:55:28.201Z,58.37
2022-10-07T08:58:14.686Z,56.49
2022-10-07T09:00:50.738Z,56.62
2022-10-07T09:03:32.129Z,55.97
2022-10-07T09:06:02.781Z,54.93
2022-10-07T09:08:36.077Z,56.22
2022-10-07T09:11:16.461Z,57.52
2022-10-07T09:13:49.924Z,56.17
2022-10-07T09:16:24.244Z,55.86
2022-10-07T09:18:56.076Z,55.48
2022-10-07T09:21:33.923Z,54.48
2022-10-07T09:24:17.127Z,55.24
2022-10-07T09:26:47.305Z,54.50
2022-10-07T09:29:19.565Z,54.97
2022-10-07T09:31:49.346Z,54.98
2022-10-07T09:34:23.395Z,56.00
2022-10-07T09:37:11.961Z,55.89
2022-10-07T09:39:41.268Z,53.61
2022-10-07T09:42:29.683Z,56.24
2022-10-07T09:45:01.356Z,56.10
2022-10-07T09:47:36.031Z,55.42
2022-10-07T09:50:04.776Z,54.46
2022-10-07T09:52:33.214Z,56.16
2022-10-07T09:55:31.968Z,55.75
2022-10-07T09:58:02.117Z,56.69
2022-10-07T10:00:31.543Z,55.74
2022-10-07T10:03:06.500Z,55.38
2022-10-07T10:05:39.700Z,55.90
2022-10-07T10:08:22.733Z,52.37
2022-10-07T10:10:53.028Z,54.16
2022-10-07T10:13:28.846Z,54.94
2022-10-07T10:15:58.603Z,55.33
2022-10-07T10:18:36.287Z,54.36
2022-10-07T10:21:22.849Z,55.70
2022-10-07T10:23:53.711Z,55.83
2022-10-07T10:26:37.663Z,54.16
2022-10-07T10:29:18.402Z,53.45
2022-10-07T10:32:44.840Z,53.01
2022-10-07T10:35:17.045Z,54.91
2022-10-07T10:38:00.022Z,54.52
2022-10-07T10:40:36.487Z,54.81
2022-10-07T10:43:20.198Z,54.11
2022-10-07T10:45:59.759Z,53.56
2022-10-07T10:48:43.124Z,51.86
2022-10-07T10:51:28.135Z,53.13
2022-10-07T10:54:11.496Z,52.71
2022-10-07T10:56:45.739Z,52.39
2022-10-07T10:59:28.368Z,52.91
2022-10-07T11:02:09.923Z,51.67
2022-10-07T11:04:46.590Z,51.87
2022-10-07T11:07:22.785Z,53.95
2022-10-07T11:09:55.199Z,53.92
2022-10-07T11:12:27.617Z,53.14
2022-10-07T11:15:02.174Z,53.51
2022-10-07T11:17:35.828Z,53.02
2022-10-07T11:20:15.584Z,53.34
2022-10-07T11:22:52.940Z,53.10
2022-10-07T11:25:29.594Z,52.84
2022-10-07T11:28:06.474Z,53.53
2022-10-07T11:30:42.564Z,53.99
2022-10-07T11:33:23.978Z,52.71
2022-10-07T11:35:58.183Z,54.61
2022-10-07T11:38:31.257Z,53.57
2022-10-07T11:41:04.616Z,53.58
2022-10-07T11:43:38.141Z,52.25
2022-10-07T11:46:11.842Z,54.92
2022-10-07T11:48:44.847Z,54.05
2022-10-07T11:51:23.549Z,54.08
2022-10-07T11:53:54.979Z,53.08
2022-10-07T11:56:25.568Z,52.49
2022-10-07T11:59:01.773Z,51.87
2022-10-07T12:01:55.198Z,51.00
2022-10-07T12:04:39.398Z,50.90
2022-10-07T12:07:57.451Z,53.47
2022-10-07T12:10:30.609Z,55.08
2022-10-07T12:13:00.916Z,52.44
2022-10-07T12:15:35.465Z,53.38
2022-10-07T12:18:28.684Z,54.47
2022-10-07T12:21:09.019Z,56.74
2022-10-07T12:23:47.045Z,56.52
2022-10-07T12:26:52.562Z,57.05
2022-10-07T12:29:36.490Z,56.43
2022-10-07T12:32:05.004Z,57.07
2022-10-07T12:34:40.097Z,57.28
2022-10-07T12:37:45.260Z,57.35
2022-10-07T12:40:23.661Z,57.72
2022-10-07T12:43:10.748Z,56.88
2022-10-07T12:45:43.406Z,57.82
2022-10-07T12:48:20.282Z,58.63
2022-10-07T12:50:54.035Z,58.49
2022-10-07T12:53:26.152Z,59.70
2022-10-07T12:55:57.461Z,59.76
2022-10-07T12:59:11.347Z,59.14
2022-10-07T13:01:58.334Z,59.48
2022-10-07T13:04:48.913Z,60.53
2022-10-07T13:07:52.035Z,60.39
2022-10-07T13:10:35.809Z,60.46
2022-10-07T13:13:09.632Z,61.41
2022-10-07T13:15:44.277Z,60.69
2022-10-07T13:18:19.877Z,58.50
2022-10-07T13:21:02.530Z,58.46
2022-10-07T13:23:31.987Z,59.88
2022-10-07T13:26:02.219Z,60.22
2022-10-07T13:28:38.850Z,60.60
2022-10-07T13:31:16.529Z,59.46
2022-10-07T13:33:44.693Z,60.09
2022-10-07T13:36:17.531Z,60.04
2022-10-07T13:38:47.275Z,58.84
2022-10-07T13:41:21.593Z,58.46
2022-10-07T13:43:54.558Z,59.50
2022-10-07T13:46:24.853Z,58.66
2022-10-07T13:48:54.227Z,58.68
2022-10-07T13:51:28.868Z,59.11
2022-10-07T13:53:59.426Z,58.74
2022-10-07T13:56:31.753Z,57.68
2022-10-07T13:59:01.251Z,59.61
2022-10-07T14:01:33.202Z,58.88
2022-10-07T14:04:10.136Z,60.04
2022-10-07T14:06:48.265Z,60.25
2022-10-07T14:09:22.842Z,59.82
2022-10-07T14:11:55.188Z,60.15
2022-10-07T14:14:28.195Z,60.59
2022-10-07T14:17:00.156Z,59.20
2022-10-07T14:19:32.733Z,60.35
2022-10-07T14:22:03.240Z,60.98
2022-10-07T14:24:32.227Z,61.12
2022-10-07T14:27:00.441Z,60.75
2022-10-07T14:29:38.903Z,61.45
2022-10-07T14:32:38.871Z,61.66
2022-10-07T14:35:20.266Z,60.80
2022-10-07T14:37:49.298Z,60.68
2022-10-07T14:40:19.403Z,59.94
2022-10-07T14:42:47.948Z,59.09
2022-10-07T14:45:18.797Z,60.35
2022-10-07T14:47:46.796Z,59.73
2022-10-07T14:50:14.926Z,59.72
2022-10-07T14:52:46.913Z,60.34
2022-10-07T14:55:18.477Z,61.79
2022-10-07T14:57:49.016Z,61.00
2022-10-07T15:00:20.136Z,61.45
2022-10-07T15:02:50.229Z,61.30
2022-10-07T15:05:20.397Z,61.86
2022-10-07T15:07:49.953Z,60.73
2022-10-07T15:10:19.811Z,61.41
2022-10-07T15:12:48.645Z,62.24
2022-10-07T15:15:18.712Z,61.93
2022-10-07T15:17:47.238Z,62.65
2022-10-07T15:20:16.497Z,62.82
2022-10-07T15:22:45.606Z,63.46
2022-10-07T15:25:15.730Z,62.18
2022-10-07T15:27:43.789Z,63.05
2022-10-07T15:30:13.371Z,63.36
2022-10-07T15:32:42.881Z,63.02
2022-10-07T15:35:11.145Z,62.73
2022-10-07T15:37:39.412Z,62.73
2022-10-07T15:40:08.705Z,62.37
2022-10-07T15:42:40.413Z,62.52
2022-10-07T15:45:10.094Z,62.61
2022-10-07T15:47:38.313Z,62.42
2022-10-07T15:50:08.800Z,63.15
2022-10-07T15:52:36.604Z,63.06
2022-10-07T15:55:07.592Z,63.99
2022-10-07T15:57:36.177Z,63.79
2022-10-07T16:00:04.954Z,64.21
2022-10-07T16:02:39.792Z,65.14
2022-10-07T16:05:12.947Z,64.46
2022-10-07T16:07:40.752Z,64.17
2022-10-07T16:10:13.011Z,64.52
2022-10-07T16:12:41.053Z,64.22
2022-10-07T16:15:09.264Z,65.02
2022-10-07T16:17:37.053Z,65.35
2022-10-07T16:20:10.340Z,64.96
2022-10-07T16:22:40.419Z,64.81
2022-10-07T16:25:08.803Z,65.18
2022-10-07T16:27:50.492Z,65.14
2022-10-07T16:30:36.095Z,65.42
2022-10-07T16:33:03.932Z,65.29
2022-10-07T16:35:34.044Z,65.52
2022-10-07T16:38:04.184Z,66.70
2022-10-07T16:40:32.119Z,67.25
2022-10-07T16:43:00.362Z,67.39
2022-10-07T16:45:30.504Z,67.13
2022-10-07T16:47:58.660Z,67.20
2022-10-07T16:50:26.515Z,67.36
2022-10-07T16:52:57.118Z,67.86
2022-10-07T16:55:26.227Z,68.65
2022-10-07T16:57:56.222Z,68.17
2022-10-07T17:00:24.093Z,68.12
2022-10-07T17:02:51.909Z,68.75
2022-10-07T17:05:19.799Z,69.22
2022-10-07T17:07:48.353Z,69.44
2022-10-07T17:10:16.346Z,70.11
2022-10-07T17:12:47.654Z,70.71
2022-10-07T17:15:15.955Z,72.27
2022-10-07T17:17:44.031Z,71.77
2022-10-07T17:20:12.129Z,71.35
2022-10-07T17:22:40.143Z,70.41
2022-10-07T17:25:10.633Z,74.56
2022-10-07T17:27:38.429Z,76.17
2022-10-07T17:30:09.273Z,76.67
2022-10-07T17:32:37.335Z,77.39
2022-10-07T17:35:05.959Z,74.67
2022-10-07T17:37:34.262Z,74.10
2022-10-07T17:40:02.098Z,73.49
2022-10-07T17:42:30.029Z,73.08
2022-10-07T17:44:58.059Z,72.51
2022-10-07T17:47:27.214Z,72.43
2022-10-07T17:49:55.217Z,72.49
2022-10-07T17:52:27.201Z,72.37
2022-10-07T17:54:57.784Z,72.06
2022-10-07T17:57:31.705Z,72.20
2022-10-07T18:00:01.491Z,71.48
2022-10-07T18:02:40.926Z,72.76
2022-10-07T18:05:09.129Z,74.02
2022-10-07T18:07:37.141Z,75.17
2022-10-07T18:10:05.187Z,76.15
2022-10-07T18:12:50.579Z,76.22
2022-10-07T18:15:21.552Z,75.40
2022-10-07T18:17:52.437Z,78.44
2022-10-07T18:20:21.586Z,77.71
2022-10-07T18:22:54.018Z,76.44
2022-10-07T18:25:21.855Z,78.09
2022-10-07T18:27:49.648Z,77.44
2022-10-07T18:30:18.009Z,78.13
2022-10-07T18:32:45.854Z,77.47
2022-10-07T18:35:15.077Z,77.56
2022-10-07T18:37:43.241Z,78.16
2022-10-07T18:40:11.830Z,77.56
2022-10-07T18:42:39.586Z,77.10
2022-10-07T18:45:08.293Z,77.93
2022-10-07T18:47:36.107Z,78.04
2022-10-07T18:50:04.038Z,78.03
2022-10-07T18:52:33.492Z,78.82
2022-10-07T18:55:01.330Z,78.48
2022-10-07T18:57:29.198Z,78.12
2022-10-07T18:59:57.034Z,78.72
2022-10-07T19:02:24.788Z,79.01
2022-10-07T19:04:53.265Z,78.58
2022-10-07T19:07:23.455Z,78.05
2022-10-07T19:09:52.641Z,78.30
2022-10-07T19:12:37.847Z,78.23
2022-10-07T19:15:06.276Z,78.72
2022-10-07T19:17:34.042Z,78.65
2022-10-07T19:20:02.364Z,77.76
2022-10-07T19:22:30.140Z,78.01
2022-10-07T19:25:19.172Z,78.05
2022-10-07T19:27:47.259Z,77.60
2022-10-07T19:30:15.292Z,76.93
2022-10-07T19:32:43.043Z,77.11
2022-10-07T19:35:10.799Z,77.16
2022-10-07T19:37:38.608Z,76.98
2022-10-07T19:40:11.233Z,76.56
2022-10-07T19:42:39.006Z,76.85
2022-10-07T19:45:09.236Z,76.74
2022-10-07T19:47:36.997Z,76.78
2022-10-07T19:50:05.411Z,76.63
2022-10-07T19:52:33.204Z,77.06
2022-10-07T19:55:01.493Z,77.94
2022-10-07T19:57:31.501Z,79.01
2022-10-07T19:59:59.295Z,78.28
2022-10-07T20:02:27.171Z,77.23
2022-10-07T20:04:57.428Z,77.29
2022-10-07T20:07:25.233Z,76.96
2022-10-07T20:09:53.032Z,76.82
2022-10-07T20:12:21.185Z,76.76
2022-10-07T20:14:50.633Z,76.42
2022-10-07T20:17:19.532Z,75.96
2022-10-07T20:19:47.334Z,76.50
2022-10-07T20:22:15.067Z,76.06
2022-10-07T20:24:42.823Z,76.15
2022-10-07T20:27:10.760Z,75.67
2022-10-07T20:29:57.038Z,76.00
2022-10-07T20:32:27.293Z,75.49
2022-10-07T20:34:55.104Z,75.58
2022-10-07T20:37:23.164Z,75.49
2022-10-07T20:40:08.520Z,75.54
2022-10-07T20:42:36.372Z,75.29
2022-10-07T20:45:04.996Z,75.43
2022-10-07T20:47:36.065Z,75.47
2022-10-07T20:50:04.070Z,76.72
2022-10-07T20:52:33.607Z,76.89
2022-10-07T20:55:01.369Z,76.48
2022-10-07T20:57:33.295Z,76.03
2022-10-07T21:00:01.075Z,75.63
2022-10-07T21:02:29.205Z,76.10
2022-10-07T21:04:59.286Z,76.14
2022-10-07T21:07:27.119Z,75.96
2022-10-07T21:09:55.133Z,76.14
2022-10-07T21:12:23.132Z,75.62
2022-10-07T21:14:51.181Z,75.74
2022-10-07T21:17:18.916Z,76.48
2022-10-07T21:19:46.744Z,76.27
2022-10-07T21:22:15.866Z,76.91
2022-10-07T21:24:43.879Z,77.77
2022-10-07T21:27:11.677Z,77.92
2022-10-07T21:29:43.973Z,77.29
2022-10-07T21:32:13.725Z,77.31
2022-10-07T21:34:41.517Z,77.15
2022-10-07T21:37:09.293Z,79.68
2022-10-07T21:39:38.427Z,78.37
2022-10-07T21:42:06.413Z,77.72
2022-10-07T21:44:35.501Z,77.44
2022-10-07T21:47:04.975Z,77.57
2022-10-07T21:49:32.827Z,78.45
2022-10-07T21:52:00.631Z,78.57
2022-10-07T21:54:28.492Z,78.12
2022-10-07T21:56:57.931Z,77.48
2022-10-07T21:59:25.679Z,76.97
2022-10-07T22:01:53.454Z,77.49
2022-10-07T22:04:21.414Z,77.36
2022-10-07T22:07:09.303Z,77.23
2022-10-07T22:09:37.056Z,77.42
2022-10-07T22:12:06.546Z,77.50
2022-10-07T22:14:34.340Z,77.70
2022-10-07T22:17:02.122Z,77.35
2022-10-07T22:19:29.889Z,77.53
2022-10-07T22:21:57.649Z,77.35
2022-10-07T22:24:25.580Z,77.86
2022-10-07T22:26:53.344Z,78.54
2022-10-07T22:29:23.031Z,77.90
2022-10-07T22:31:50.876Z,82.15
2022-10-07T22:34:36.543Z,82.57
2022-10-07T22:37:04.771Z,83.98
2022-10-07T22:39:32.734Z,86.02
2022-10-07T22:42:03.677Z,88.34
2022-10-07T22:44:32.859Z,87.19
2022-10-07T22:47:02.998Z,86.33
2022-10-07T22:49:30.761Z,88.15
2022-10-07T22:52:00.270Z,88.18
2022-10-07T22:54:28.321Z,87.83
2022-10-07T22:56:56.135Z,85.94
2022-10-07T22:59:23.873Z,84.58
2022-10-07T23:01:52.993Z,83.93
2022-10-07T23:04:22.943Z,84.06
2022-10-07T23:06:50.803Z,83.37
2022-10-07T23:09:18.653Z,85.61
2022-10-07T23:11:48.759Z,87.48
2022-10-07T23:14:17.876Z,85.40
2022-10-07T23:16:45.670Z,83.23
2022-10-07T23:19:17.203Z,82.28
2022-10-07T23:21:45.561Z,81.83
2022-10-07T23:24:13.867Z,84.26
2022-10-07T23:26:41.660Z,84.16
2022-10-07T23:29:11.562Z,84.84
2022-10-07T23:31:40.037Z,88.72
2022-10-07T23:34:07.884Z,87.01
2022-10-07T23:36:37.843Z,84.37
2022-10-07T23:39:05.715Z,82.85
2022-10-07T23:41:34.290Z,82.32
2022-10-07T23:44:03.325Z,81.82
2022-10-07T23:46:33.914Z,81.51
2022-10-07T23:49:02.459Z,80.79
2022-10-07T23:51:32.429Z,80.67
2022-10-07T23:54:03.546Z,80.51
2022-10-07T23:56:32.165Z,81.90
2022-10-07T23:59:00.517Z,81.65
